• Join FlightAware (Why Join?)
  • Login
  • US Flag 
03:17PM EDT


 

Airport Tracker/Info


-or-


 

Live Flight TrackerFlight Track Log ✈ ASQ4209 ✈ 18-May-2013 ✈ KCLE - KALB

Flight Track Log - Related Links

Times and Time Zones

All times are in EDT time to prevent confusion due to time zone crossing. See the ASQ4209 flight status page for this flight to view local times or setup timezone preferences in your user account.

Time Position Orientation Groundspeed Altitude Reporting Facility
EDT Latitude Longitude Course Direction KTS MPH feet Rate Location/Type
08:48AM 41.4214 -81.8375 27° Northeast 165 190 2,000  Level Cleveland Center
08:50AM 41.5014 -81.7836 27° Northeast 250 288 5,800 2,880 Climbing Cleveland Center
08:51AM 41.5644 -81.7264 34° Northeast 270 311 9,200 2,760 Climbing Cleveland Center
08:52AM 41.6319 -81.6500 40° Northeast 287 330 11,400 2,040 Climbing Cleveland Center
08:53AM 41.7097 -81.5650 39° Northeast 331 381 13,300 2,040 Climbing Cleveland Center
08:54AM 41.7875 -81.4769 40° Northeast 355 409 15,500 2,100 Climbing Cleveland Center
08:55AM 41.8489 -81.3608 55° Northeast 366 421 17,600 2,040 Climbing Cleveland Center
08:56AM 41.8706 -81.2161 79° East 371 427 19,600 2,040 Climbing Cleveland Center
08:57AM 41.8944 -81.0686 78° East 394 453 21,700 2,160 Climbing Cleveland Center
08:58AM 41.9156 -80.9208 79° East 400 460 24,000 2,040 Climbing Cleveland Center
08:59AM 41.9347 -80.7869 79° East 405 466 25,800 2,100 Climbing Cleveland Center
09:00AM 41.9578 -80.6419 78° East 405 466 28,200 1,560 Climbing Cleveland Center
09:01AM 41.9808 -80.4939 78° East 400 460 29,000 360 Climbing Cleveland Center
09:02AM 42.0033 -80.3261 80° East 430 495 29,000  Level Cleveland Center
09:03AM 42.0281 -80.1500 79° East 468 539 29,000  Level Cleveland Center
09:04AM 42.0583 -79.9511 78° East 485 558 29,000  Level Cleveland Center
09:05AM 42.0822 -79.7692 80° East 490 564 29,000  Level Cleveland Center
09:06AM 42.1078 -79.5867 79° East 490 564 29,000  Level Cleveland Center
09:07AM 42.1333 -79.4044 79° East 490 564 29,000  Level Cleveland Center
09:08AM 42.1583 -79.2219 79° East 490 564 29,000  Level Cleveland Center
09:09AM 42.1831 -79.0364 80° East 491 565 29,000  Level Cleveland Center
09:10AM 42.2075 -78.8508 80° East 491 565 29,000  Level Cleveland Center
09:11AM 42.2317 -78.6678 80° East 491 565 29,000  Level Cleveland Center
09:12AM 42.2556 -78.4847 80° East 491 565 29,000  Level Cleveland Center
09:13AM 42.2792 -78.2989 80° East 491 565 29,000  Level Cleveland Center
09:14AM 42.3003 -78.1156 81° East 491 565 29,000  Level Cleveland Center
09:15AM 42.3253 -77.9264 80° East 491 565 29,000  Level Cleveland Center
09:16AM 42.3481 -77.7400 81° East 491 565 29,000  Level Cleveland Center
09:17AM 42.3683 -77.5564 81° East 491 565 29,000  Level Cleveland Center
09:18AM 42.4081 -77.2183 81° East 502 578 29,000  Level Boston Center
09:19AM 42.4306 -77.0317 81° East 502 578 29,000  Level Boston Center
09:20AM 42.4506 -76.8417 82° East 502 578 29,000  Level Boston Center
09:21AM 42.4722 -76.6517 81° East 502 578 29,000  Level Boston Center
09:22AM 42.4919 -76.4586 82° East 502 578 29,000  Level Boston Center
09:23AM 42.5131 -76.2711 81° East 502 578 29,000  Level Boston Center
09:24AM 42.5339 -76.0808 81° East 507 583 29,000 -240 Level Boston Center
09:25AM 42.5544 -75.8875 82° East 507 583 28,600 -1,200 Descending Boston Center
09:26AM 42.5728 -75.6939 83° East 512 589 26,700 -1,920 Descending Boston Center
09:27AM 42.5944 -75.5089 81° East 512 589 24,800 -1,980 Descending Boston Center
09:28AM 42.6094 -75.3317 83° East 490 564 22,800 -1,980 Descending Boston Center
09:29AM 42.6264 -75.1606 82° East 472 543 20,900 -2,160 Descending Boston Center
09:30AM 42.6425 -75.0003 82° East 456 525 18,500 -2,220 Descending Boston Center
09:31AM 42.6542 -74.8483 84° East 425 489 16,500 -2,220 Descending Boston Center
09:32AM 42.6622 -74.7581 83° East 380 437 14,900 -2,640 Descending Boston Center
09:32AM 42.6675 -74.7047 82° East 386 444 13,900 -2,400 Descending Boston Center
09:33AM 42.6806 -74.5669 83° East 376 433 11,700 -1,500 Descending Boston Center
09:34AM 42.6914 -74.4317 84° East 361 415 11,000 -840 Descending Boston Center
09:35AM 42.6850 -74.3156 94° East 328 377 10,100 -1,440 Descending Boston Center
09:36AM 42.6783 -74.2081 95° East 293 337 8,200 -1,800 Descending Boston Center
09:37AM 42.6739 -74.1033 93° East 279 321 6,600 -1,740 Descending Boston Center
09:38AM 42.6719 -74.0781 96° East 274 315 6,000 -1,620 Descending Boston Center
09:38AM 42.6689 -74.0158 94° East 272 313 5,000 -1,680 Descending Boston Center
09:39AM 42.6650 -73.9789 98° East 260 299 4,300 -1,800 Descending Boston Center
09:39AM 42.6639 -73.9225 92° East 259 298 3,200 -1,800 Descending Boston Center
09:40AM 42.6600 -73.8800 97° East 248 285 2,500 -1,020 Descending Boston Center
09:40AM 42.6567 -73.8178 94° East 254 292 2,200 -720 Descending Boston Center
09:41AM 42.6736 -73.8097 19° North 178 205 1,800 -1,080 Descending Boston Center
09:42AM 42.7069 -73.8047 North 123 142 900 -1,020 Descending Boston Center